AAY209 KORD-KJFK
Flight info
| Callsign | AAY209 |
|---|---|
| Flight time | N/A |
| Altitude | 37000 |
| Route | DUFEE LOGGR HAAKK DOXXY SOSIC JHW Q476 WLKES PUCKY1 |
| Aircraft | A320/M-SDE3FGHIRWY/LB1 |
Departure
| Time | 2026-05-07 23:45 |
|---|---|
| Airport | Chicago O'Hare International Airport (KORD) |
Arrival
| Time | N/A |
|---|---|
| Airport | John F. Kennedy International Airport (KJFK) |
| Time | Latitude | Longitude | Altitude | Speed | Heading |
|---|---|---|---|---|---|
| 2026-05-07 23:22 | 41.97357 | -87.88847 | 659 ft | 0 kts | 0° |
| 2026-05-07 23:33 | 41.97351 | -87.88847 | 659 ft | 4 kts | 360° |
| 2026-05-07 23:33 | 41.97324 | -87.88846 | 659 ft | 4 kts | 354° |
| 2026-05-07 23:33 | 41.97298 | -87.88840 | 658 ft | 4 kts | 342° |
| 2026-05-07 23:33 | 41.97275 | -87.88825 | 659 ft | 4 kts | 304° |
| 2026-05-07 23:34 | 41.97270 | -87.88807 | 659 ft | 1 kts | 269° |
| 2026-05-07 23:34 | 41.97270 | -87.88804 | 659 ft | 0 kts | 269° |
| 2026-05-07 23:36 | 41.97270 | -87.88814 | 659 ft | 3 kts | 269° |
| 2026-05-07 23:36 | 41.97270 | -87.88866 | 659 ft | 8 kts | 269° |
| 2026-05-07 23:37 | 41.97269 | -87.88966 | 659 ft | 13 kts | 270° |
| 2026-05-07 23:37 | 41.97268 | -87.89103 | 662 ft | 16 kts | 269° |
| 2026-05-07 23:37 | 41.97269 | -87.89276 | 662 ft | 20 kts | 280° |
| 2026-05-07 23:37 | 41.97342 | -87.89411 | 660 ft | 15 kts | 260° |
| 2026-05-07 23:38 | 41.97292 | -87.89475 | 662 ft | 10 kts | 221° |
| 2026-05-07 23:38 | 41.97256 | -87.89564 | 664 ft | 12 kts | 246° |
| 2026-05-07 23:38 | 41.97210 | -87.89679 | 666 ft | 15 kts | 240° |
| 2026-05-07 23:38 | 41.97162 | -87.89817 | 670 ft | 17 kts | 245° |
| 2026-05-07 23:39 | 41.97136 | -87.89997 | 668 ft | 23 kts | 270° |
| 2026-05-07 23:39 | 41.97136 | -87.90237 | 667 ft | 28 kts | 270° |
| 2026-05-07 23:39 | 41.97139 | -87.90511 | 665 ft | 27 kts | 278° |
| 2026-05-07 23:39 | 41.97153 | -87.90684 | 667 ft | 20 kts | 275° |
| 2026-05-07 23:40 | 41.97220 | -87.90850 | 670 ft | 22 kts | 312° |
| 2026-05-07 23:40 | 41.97318 | -87.91027 | 672 ft | 23 kts | 326° |
| 2026-05-07 23:40 | 41.97455 | -87.91136 | 671 ft | 26 kts | 315° |
| 2026-05-07 23:40 | 41.97600 | -87.91315 | 671 ft | 30 kts | 318° |
| 2026-05-07 23:41 | 41.98075 | -87.92175 | 808 ft | 485 kts | 305° |
| 2026-05-07 23:41 | 41.98158 | -87.92564 | 695 ft | 0 kts | 305° |
| 2026-05-07 23:41 | 41.98188 | -87.92641 | 672 ft | 15 kts | 283° |
| 2026-05-07 23:41 | 41.98192 | -87.92779 | 676 ft | 14 kts | 270° |
| 2026-05-07 23:42 | 41.98191 | -87.92910 | 679 ft | 14 kts | 270° |
| 2026-05-07 23:42 | 41.98191 | -87.93043 | 680 ft | 15 kts | 270° |
| 2026-05-07 23:42 | 41.98219 | -87.93139 | 682 ft | 9 kts | 332° |
| 2026-05-07 23:42 | 41.98275 | -87.93145 | 683 ft | 7 kts | 0° |
| 2026-05-07 23:43 | 41.98316 | -87.93144 | 684 ft | 5 kts | 0° |
| 2026-05-07 23:43 | 41.98340 | -87.93144 | 684 ft | 3 kts | 0° |
| 2026-05-07 23:43 | 41.98366 | -87.93139 | 685 ft | 5 kts | 16° |
| 2026-05-07 23:43 | 41.98388 | -87.93095 | 682 ft | 7 kts | 77° |
| 2026-05-07 23:44 | 41.98393 | -87.93008 | 682 ft | 13 kts | 89° |
| 2026-05-07 23:44 | 41.98394 | -87.92735 | 673 ft | 66 kts | 90° |
| 2026-05-07 23:44 | 41.98383 | -87.91821 | 669 ft | 130 kts | 90° |
| 2026-05-07 23:44 | 41.98401 | -87.90337 | 754 ft | 178 kts | 92° |
| 2026-05-07 23:45 | 41.98366 | -87.88635 | 1392 ft | 185 kts | 93° |
| 2026-05-07 23:45 | 41.98420 | -87.86900 | 2183 ft | 189 kts | 85° |
| 2026-05-07 23:45 | 41.98658 | -87.85052 | 2554 ft | 212 kts | 75° |
| 2026-05-07 23:45 | 41.99068 | -87.83041 | 2954 ft | 235 kts | 72° |
| 2026-05-07 23:46 | 41.99536 | -87.80814 | 3342 ft | 262 kts | 73° |
| 2026-05-07 23:46 | 42.00025 | -87.78362 | 3413 ft | 276 kts | 74° |
| 2026-05-07 23:46 | 42.00481 | -87.75881 | 3420 ft | 278 kts | 76° |
| 2026-05-07 23:46 | 42.00915 | -87.73347 | 3425 ft | 279 kts | 76° |
| 2026-05-07 23:47 | 42.01327 | -87.70824 | 3434 ft | 279 kts | 77° |
| 2026-05-07 23:47 | 42.01735 | -87.68259 | 3429 ft | 278 kts | 77° |
| 2026-05-07 23:47 | 42.02133 | -87.65713 | 3433 ft | 278 kts | 77° |
| 2026-05-07 23:47 | 42.02528 | -87.63168 | 3442 ft | 278 kts | 77° |
| 2026-05-07 23:48 | 42.02795 | -87.61449 | 3433 ft | 278 kts | 77° |
| 2026-05-07 23:48 | 42.03191 | -87.58902 | 3437 ft | 279 kts | 77° |
| 2026-05-07 23:48 | 42.03589 | -87.56350 | 3439 ft | 279 kts | 77° |
| 2026-05-07 23:48 | 42.03986 | -87.53800 | 3450 ft | 279 kts | 77° |
| 2026-05-07 23:49 | 42.04382 | -87.51244 | 3445 ft | 279 kts | 77° |
| 2026-05-07 23:49 | 42.04776 | -87.48692 | 3447 ft | 279 kts | 77° |
| 2026-05-07 23:49 | 42.05171 | -87.46139 | 3456 ft | 279 kts | 77° |
| 2026-05-07 23:49 | 42.05559 | -87.43616 | 3455 ft | 279 kts | 77° |
| 2026-05-07 23:50 | 42.05954 | -87.41064 | 3451 ft | 279 kts | 77° |
| 2026-05-07 23:50 | 42.06113 | -87.40030 | 3453 ft | 279 kts | 77° |
| 2026-05-07 23:50 | 42.06484 | -87.37630 | 3458 ft | 280 kts | 77° |
| 2026-05-07 23:50 | 42.06889 | -87.35020 | 4127 ft | 286 kts | 76° |
| 2026-05-07 23:51 | 42.07291 | -87.32411 | 5167 ft | 288 kts | 76° |
| 2026-05-07 23:51 | 42.07698 | -87.29766 | 6137 ft | 290 kts | 76° |
| 2026-05-07 23:51 | 42.08109 | -87.27085 | 6991 ft | 296 kts | 75° |
| 2026-05-07 23:51 | 42.08528 | -87.24344 | 7811 ft | 302 kts | 75° |
| 2026-05-07 23:52 | 42.08953 | -87.21541 | 8631 ft | 308 kts | 75° |
| 2026-05-07 23:52 | 42.09386 | -87.18684 | 9441 ft | 315 kts | 75° |
| 2026-05-07 23:52 | 42.09827 | -87.15767 | 10192 ft | 322 kts | 75° |
| 2026-05-07 23:52 | 42.10293 | -87.12704 | 10499 ft | 346 kts | 75° |
| 2026-05-07 23:53 | 42.10789 | -87.09451 | 10968 ft | 360 kts | 76° |
| 2026-05-07 23:53 | 42.11246 | -87.06101 | 11680 ft | 368 kts | 81° |
| 2026-05-07 23:53 | 42.11403 | -87.02636 | 12434 ft | 373 kts | 85° |
| 2026-05-07 23:53 | 42.11526 | -86.99124 | 13190 ft | 378 kts | 85° |
| 2026-05-07 23:54 | 42.11652 | -86.95575 | 13918 ft | 382 kts | 85° |
| 2026-05-07 23:54 | 42.11782 | -86.91980 | 14553 ft | 388 kts | 85° |
| 2026-05-07 23:54 | 42.11914 | -86.88329 | 15190 ft | 392 kts | 85° |
| 2026-05-07 23:54 | 42.12049 | -86.84639 | 15846 ft | 396 kts | 85° |
| 2026-05-07 23:55 | 42.12182 | -86.80916 | 16518 ft | 400 kts | 85° |
| 2026-05-07 23:55 | 42.12314 | -86.77163 | 17182 ft | 403 kts | 85° |
| 2026-05-07 23:55 | 42.12448 | -86.73369 | 17845 ft | 407 kts | 85° |
| 2026-05-07 23:55 | 42.12581 | -86.69550 | 18459 ft | 411 kts | 85° |
| 2026-05-07 23:56 | 42.12707 | -86.65910 | 18969 ft | 415 kts | 85° |
| 2026-05-07 23:56 | 42.12778 | -86.63807 | 19262 ft | 417 kts | 85° |
| 2026-05-07 23:56 | 42.12871 | -86.61091 | 19626 ft | 420 kts | 85° |
| 2026-05-07 23:56 | 42.13003 | -86.57145 | 20172 ft | 424 kts | 85° |
| 2026-05-07 23:57 | 42.13133 | -86.53158 | 20681 ft | 429 kts | 84° |
| 2026-05-07 23:57 | 42.13263 | -86.49119 | 21207 ft | 434 kts | 84° |
| 2026-05-07 23:57 | 42.13392 | -86.45035 | 21738 ft | 438 kts | 84° |
| 2026-05-07 23:57 | 42.13525 | -86.40916 | 22271 ft | 442 kts | 84° |
| 2026-05-07 23:58 | 42.13660 | -86.36762 | 22803 ft | 446 kts | 84° |
| 2026-05-07 23:58 | 42.13795 | -86.32563 | 23332 ft | 450 kts | 84° |
| 2026-05-07 23:58 | 42.13926 | -86.28337 | 23842 ft | 454 kts | 84° |
| 2026-05-07 23:58 | 42.14055 | -86.24073 | 24277 ft | 457 kts | 84° |
| 2026-05-07 23:59 | 42.14181 | -86.19779 | 24683 ft | 461 kts | 84° |
| 2026-05-07 23:59 | 42.14306 | -86.15446 | 25109 ft | 464 kts | 84° |
| 2026-05-07 23:59 | 42.14432 | -86.11086 | 25501 ft | 468 kts | 85° |
| 2026-05-07 23:59 | 42.14502 | -86.06706 | 25879 ft | 472 kts | 86° |
| 2026-05-08 00:00 | 42.14499 | -86.02262 | 26254 ft | 476 kts | 88° |
| 2026-05-08 00:00 | 42.14447 | -85.97778 | 26617 ft | 480 kts | 89° |
| 2026-05-08 00:00 | 42.14373 | -85.93262 | 26972 ft | 484 kts | 89° |
| 2026-05-08 00:00 | 42.14300 | -85.88715 | 27319 ft | 487 kts | 89° |
| 2026-05-08 00:01 | 42.14243 | -85.84136 | 27671 ft | 491 kts | 88° |
| 2026-05-08 00:01 | 42.14202 | -85.79527 | 28019 ft | 494 kts | 88° |
| 2026-05-08 00:01 | 42.14168 | -85.74886 | 28357 ft | 497 kts | 88° |
| 2026-05-08 00:01 | 42.14135 | -85.70213 | 28685 ft | 500 kts | 88° |
| 2026-05-08 00:02 | 42.14099 | -85.65508 | 29002 ft | 504 kts | 88° |
| 2026-05-08 00:02 | 42.14059 | -85.60777 | 29319 ft | 507 kts | 88° |
| 2026-05-08 00:02 | 42.14010 | -85.56006 | 29628 ft | 510 kts | 89° |
| 2026-05-08 00:02 | 42.13959 | -85.51220 | 29938 ft | 513 kts | 89° |
| 2026-05-08 00:03 | 42.13905 | -85.46390 | 30191 ft | 516 kts | 89° |
| 2026-05-08 00:03 | 42.13849 | -85.41614 | 30441 ft | 519 kts | 89° |
| 2026-05-08 00:03 | 42.13789 | -85.36731 | 30640 ft | 523 kts | 89° |
| 2026-05-08 00:03 | 42.13731 | -85.31815 | 30856 ft | 526 kts | 89° |
| 2026-05-08 00:04 | 42.13670 | -85.26870 | 31087 ft | 529 kts | 89° |
| 2026-05-08 00:04 | 42.13606 | -85.21905 | 31310 ft | 531 kts | 89° |
| 2026-05-08 00:04 | 42.13541 | -85.16925 | 31534 ft | 533 kts | 89° |
| 2026-05-08 00:04 | 42.13470 | -85.11923 | 31847 ft | 533 kts | 89° |
| 2026-05-08 00:05 | 42.13392 | -85.06932 | 32161 ft | 533 kts | 89° |
| 2026-05-08 00:05 | 42.13314 | -85.01937 | 32484 ft | 534 kts | 89° |
| 2026-05-08 00:05 | 42.13234 | -84.97033 | 32806 ft | 533 kts | 89° |
| 2026-05-08 00:05 | 42.13149 | -84.92051 | 33127 ft | 533 kts | 89° |
| 2026-05-08 00:06 | 42.13056 | -84.87046 | 33440 ft | 534 kts | 89° |
| 2026-05-08 00:06 | 42.12959 | -84.82047 | 33757 ft | 534 kts | 89° |
| 2026-05-08 00:06 | 42.12863 | -84.77053 | 34056 ft | 534 kts | 89° |
| 2026-05-08 00:06 | 42.12768 | -84.72057 | 34331 ft | 533 kts | 89° |
| 2026-05-08 00:07 | 42.12672 | -84.67061 | 34613 ft | 533 kts | 90° |
| 2026-05-08 00:07 | 42.12570 | -84.62084 | 34925 ft | 531 kts | 90° |
| 2026-05-08 00:07 | 42.12463 | -84.57121 | 35228 ft | 529 kts | 90° |
| 2026-05-08 00:07 | 42.12352 | -84.52167 | 35497 ft | 528 kts | 90° |
| 2026-05-08 00:08 | 42.12360 | -84.47229 | 35751 ft | 526 kts | 83° |
| 2026-05-08 00:08 | 42.12802 | -84.42362 | 35992 ft | 523 kts | 78° |
| 2026-05-08 00:08 | 42.13358 | -84.37517 | 36222 ft | 523 kts | 78° |
| 2026-05-08 00:08 | 42.13910 | -84.32676 | 36451 ft | 523 kts | 78° |
| 2026-05-08 00:09 | 42.14459 | -84.27837 | 36671 ft | 522 kts | 79° |
| 2026-05-08 00:09 | 42.15000 | -84.23004 | 36875 ft | 522 kts | 79° |
| 2026-05-08 00:09 | 42.16072 | -84.13336 | 36973 ft | 520 kts | 79° |
| 2026-05-08 00:10 | 42.17131 | -84.03713 | 36970 ft | 519 kts | 79° |
| 2026-05-08 00:10 | 42.18180 | -83.94087 | 36970 ft | 519 kts | 79° |
| 2026-05-08 00:11 | 42.19225 | -83.84460 | 36950 ft | 519 kts | 79° |
| 2026-05-08 00:11 | 42.19768 | -83.79431 | 36954 ft | 520 kts | 79° |
| 2026-05-08 00:12 | 42.20797 | -83.69834 | 36955 ft | 520 kts | 80° |
| 2026-05-08 00:12 | 42.21814 | -83.60161 | 36955 ft | 520 kts | 80° |
| 2026-05-08 00:13 | 42.22825 | -83.50436 | 36982 ft | 520 kts | 82° |
| 2026-05-08 00:13 | 42.23058 | -83.40747 | 36976 ft | 521 kts | 89° |
| 2026-05-08 00:14 | 42.23137 | -83.30977 | 36971 ft | 520 kts | 89° |
| 2026-05-08 00:14 | 42.23217 | -83.21220 | 36968 ft | 520 kts | 89° |
| 2026-05-08 00:15 | 42.23286 | -83.11470 | 36971 ft | 520 kts | 89° |
| 2026-05-08 00:15 | 42.23336 | -83.01719 | 36959 ft | 520 kts | 89° |
| 2026-05-08 00:16 | 42.23381 | -82.91963 | 36954 ft | 520 kts | 89° |
| 2026-05-08 00:16 | 42.23420 | -82.82206 | 36965 ft | 520 kts | 89° |
| 2026-05-08 00:17 | 42.23457 | -82.72449 | 36952 ft | 521 kts | 89° |
| 2026-05-08 00:17 | 42.23484 | -82.62672 | 36956 ft | 521 kts | 90° |
| 2026-05-08 00:18 | 42.23503 | -82.52888 | 36959 ft | 522 kts | 90° |
| 2026-05-08 00:18 | 42.23510 | -82.43102 | 36955 ft | 522 kts | 90° |
| 2026-05-08 00:19 | 42.23503 | -82.33317 | 36946 ft | 522 kts | 90° |
| 2026-05-08 00:19 | 42.23491 | -82.23517 | 36936 ft | 522 kts | 90° |
| 2026-05-08 00:20 | 42.23475 | -82.13710 | 36934 ft | 523 kts | 90° |
| 2026-05-08 00:20 | 42.23452 | -82.03890 | 36936 ft | 523 kts | 90° |
| 2026-05-08 00:21 | 42.23419 | -81.94064 | 36951 ft | 524 kts | 90° |
| 2026-05-08 00:21 | 42.23374 | -81.84241 | 36957 ft | 524 kts | 90° |
| 2026-05-08 00:22 | 42.23324 | -81.74414 | 36962 ft | 524 kts | 90° |
| 2026-05-08 00:22 | 42.23265 | -81.64594 | 36956 ft | 524 kts | 90° |
| 2026-05-08 00:23 | 42.23196 | -81.54757 | 36957 ft | 524 kts | 91° |
| 2026-05-08 00:23 | 42.23115 | -81.44912 | 36952 ft | 525 kts | 91° |
| 2026-05-08 00:24 | 42.23040 | -81.35123 | 36963 ft | 525 kts | 91° |
| 2026-05-08 00:24 | 42.22958 | -81.25267 | 36964 ft | 526 kts | 91° |
| 2026-05-08 00:25 | 42.22853 | -81.15401 | 36962 ft | 526 kts | 91° |
| 2026-05-08 00:25 | 42.22729 | -81.05532 | 36955 ft | 527 kts | 91° |
| 2026-05-08 00:26 | 42.22612 | -80.95645 | 36966 ft | 527 kts | 91° |
| 2026-05-08 00:26 | 42.22494 | -80.85758 | 36971 ft | 527 kts | 91° |
| 2026-05-08 00:27 | 42.22356 | -80.75862 | 36956 ft | 528 kts | 91° |
| 2026-05-08 00:27 | 42.22207 | -80.65963 | 36964 ft | 528 kts | 91° |
| 2026-05-08 00:28 | 42.22056 | -80.56056 | 36965 ft | 528 kts | 91° |
| 2026-05-08 00:28 | 42.21893 | -80.46143 | 36984 ft | 529 kts | 92° |
| 2026-05-08 00:29 | 42.21721 | -80.36233 | 36986 ft | 528 kts | 92° |
| 2026-05-08 00:29 | 42.21547 | -80.26337 | 36990 ft | 528 kts | 92° |
| 2026-05-08 00:30 | 42.21355 | -80.16438 | 36972 ft | 527 kts | 92° |
| 2026-05-08 00:30 | 42.21166 | -80.06558 | 36979 ft | 527 kts | 92° |
| 2026-05-08 00:31 | 42.20519 | -79.96751 | 36979 ft | 524 kts | 103° |
| 2026-05-08 00:31 | 42.19077 | -79.87125 | 36985 ft | 524 kts | 104° |
| 2026-05-08 00:32 | 42.17615 | -79.77506 | 36964 ft | 524 kts | 104° |
| 2026-05-08 00:32 | 42.16130 | -79.67901 | 36970 ft | 523 kts | 104° |
| 2026-05-08 00:33 | 42.14644 | -79.58292 | 36975 ft | 524 kts | 104° |
| 2026-05-08 00:33 | 42.13169 | -79.48690 | 36966 ft | 523 kts | 104° |
| 2026-05-08 00:34 | 42.11929 | -79.40708 | 36900 ft | 524 kts | 104° |
| 2026-05-08 00:34 | 42.10422 | -79.31103 | 36920 ft | 525 kts | 104° |
| 2026-05-08 00:35 | 42.08908 | -79.21495 | 36933 ft | 525 kts | 104° |
| 2026-05-08 00:35 | 42.07385 | -79.11877 | 36941 ft | 525 kts | 104° |
| 2026-05-08 00:36 | 42.05855 | -79.02269 | 36931 ft | 525 kts | 105° |
| 2026-05-08 00:36 | 42.04316 | -78.92664 | 36947 ft | 525 kts | 105° |
| 2026-05-08 00:37 | 42.02772 | -78.83074 | 36956 ft | 525 kts | 105° |
| 2026-05-08 00:38 | 42.00440 | -78.68706 | 36934 ft | 524 kts | 105° |
| 2026-05-08 00:38 | 41.98876 | -78.59142 | 36921 ft | 524 kts | 106° |
| 2026-05-08 00:39 | 41.97305 | -78.49581 | 36930 ft | 524 kts | 106° |
| 2026-05-08 00:39 | 41.95726 | -78.40032 | 36935 ft | 524 kts | 106° |
| 2026-05-08 00:40 | 41.94142 | -78.30483 | 36941 ft | 523 kts | 106° |
| 2026-05-08 00:40 | 41.92557 | -78.21014 | 36938 ft | 523 kts | 106° |
| 2026-05-08 00:41 | 41.90946 | -78.11418 | 36935 ft | 523 kts | 106° |
| 2026-05-08 00:41 | 41.89351 | -78.01962 | 36935 ft | 523 kts | 106° |
| 2026-05-08 00:42 | 41.87731 | -77.92449 | 36916 ft | 523 kts | 107° |
| 2026-05-08 00:42 | 41.85922 | -77.83030 | 36927 ft | 518 kts | 114° |
| 2026-05-08 00:43 | 41.83533 | -77.73910 | 36941 ft | 518 kts | 114° |
| 2026-05-08 00:43 | 41.81134 | -77.64795 | 36935 ft | 518 kts | 114° |
| 2026-05-08 00:44 | 41.78718 | -77.55702 | 36922 ft | 518 kts | 115° |
| 2026-05-08 00:44 | 41.76298 | -77.46611 | 36925 ft | 518 kts | 114° |
| 2026-05-08 00:45 | 41.73877 | -77.37531 | 36922 ft | 518 kts | 115° |
| 2026-05-08 00:45 | 41.71451 | -77.28459 | 36916 ft | 518 kts | 115° |
| 2026-05-08 00:46 | 41.69017 | -77.19400 | 36868 ft | 517 kts | 115° |
| 2026-05-08 00:46 | 41.66567 | -77.10331 | 36902 ft | 520 kts | 116° |
| 2026-05-08 00:47 | 41.64108 | -77.01227 | 36903 ft | 520 kts | 116° |
| 2026-05-08 00:47 | 41.61640 | -76.92130 | 36903 ft | 520 kts | 116° |
| 2026-05-08 00:48 | 41.59168 | -76.83049 | 36858 ft | 520 kts | 116° |
| 2026-05-08 00:48 | 41.56684 | -76.73972 | 36872 ft | 520 kts | 116° |
| 2026-05-08 00:49 | 41.54197 | -76.64907 | 36878 ft | 520 kts | 116° |
| 2026-05-08 00:49 | 41.51692 | -76.55847 | 36878 ft | 520 kts | 116° |
| 2026-05-08 00:50 | 41.49187 | -76.46794 | 36852 ft | 520 kts | 117° |
| 2026-05-08 00:50 | 41.46674 | -76.37743 | 36869 ft | 520 kts | 117° |
| 2026-05-08 00:51 | 41.44152 | -76.28694 | 36872 ft | 521 kts | 117° |
| 2026-05-08 00:51 | 41.41652 | -76.19702 | 36875 ft | 521 kts | 117° |
| 2026-05-08 00:52 | 41.39129 | -76.10660 | 36852 ft | 520 kts | 117° |
| 2026-05-08 00:52 | 41.36588 | -76.01653 | 36884 ft | 519 kts | 117° |
| 2026-05-08 00:53 | 41.34035 | -75.92648 | 36883 ft | 520 kts | 117° |
| 2026-05-08 00:53 | 41.31487 | -75.83636 | 36853 ft | 521 kts | 117° |
| 2026-05-08 00:54 | 41.28915 | -75.74605 | 36868 ft | 523 kts | 118° |
| 2026-05-08 00:54 | 41.26295 | -75.65600 | 36886 ft | 521 kts | 120° |
| 2026-05-08 00:55 | 41.23411 | -75.56808 | 36893 ft | 518 kts | 122° |
| 2026-05-08 00:55 | 41.20384 | -75.48139 | 36888 ft | 517 kts | 123° |
| 2026-05-08 00:56 | 41.17379 | -75.39453 | 36867 ft | 518 kts | 122° |
| 2026-05-08 00:56 | 41.14440 | -75.30706 | 36865 ft | 519 kts | 122° |
| 2026-05-08 00:57 | 41.11516 | -75.21941 | 36869 ft | 520 kts | 122° |